createdAt,value
2023-02-04T00:00:26.435Z,95487.97
2023-02-04T00:03:12.687Z,95474.03
2023-02-04T00:05:58.918Z,95482.06
2023-02-04T00:08:44.914Z,95470.81
2023-02-04T00:11:30.772Z,95468.13
2023-02-04T00:14:16.808Z,95459.03
2023-02-04T00:17:02.589Z,95458.00
2023-02-04T00:19:48.727Z,95445.19
2023-02-04T00:22:35.668Z,95441.16
2023-02-04T00:25:21.431Z,95435.56
2023-02-04T00:28:07.558Z,95426.44
2023-02-04T00:30:53.240Z,95414.69
2023-02-04T00:33:39.077Z,95423.53
2023-02-04T00:36:25.122Z,95429.41
2023-02-04T00:39:13.649Z,95423.78
2023-02-04T00:41:59.841Z,95433.41
2023-02-04T00:44:48.111Z,95418.44
2023-02-04T00:47:34.340Z,95412.03
2023-02-04T00:50:20.206Z,95416.56
2023-02-04T00:53:07.270Z,95428.34
2023-02-04T00:55:53.027Z,95419.00
2023-02-04T00:58:43.312Z,95423.78
2023-02-04T01:01:29.520Z,95425.94
2023-02-04T01:04:15.454Z,95430.72
2023-02-04T01:07:03.039Z,95406.69
2023-02-04T01:09:48.868Z,95414.16
2023-02-04T01:12:34.492Z,95414.69
2023-02-04T01:15:20.703Z,95413.06
2023-02-04T01:18:06.557Z,95402.66
2023-02-04T01:20:52.266Z,95396.50
2023-02-04T01:23:38.182Z,95381.00
2023-02-04T01:26:24.633Z,95382.09
2023-02-04T01:29:10.742Z,95386.34
2023-02-04T01:31:56.807Z,95376.19
2023-02-04T01:34:42.587Z,95373.53
2023-02-04T01:37:28.483Z,95360.72
2023-02-04T01:40:14.500Z,95359.91
2023-02-04T01:43:02.620Z,95363.13
2023-02-04T01:45:50.213Z,95360.94
2023-02-04T01:48:36.071Z,95339.31
2023-02-04T01:51:28.047Z,95336.63
2023-02-04T01:54:14.788Z,95333.94
2023-02-04T01:57:00.892Z,95351.59
2023-02-04T01:59:47.927Z,95345.19
2023-02-04T02:02:46.090Z,95340.34
2023-02-04T02:05:36.919Z,95341.41
2023-02-04T02:08:22.778Z,95336.59
2023-02-04T02:11:08.597Z,95332.31
2023-02-04T02:13:54.689Z,95316.28
2023-02-04T02:16:40.930Z,95326.97
2023-02-04T02:19:30.462Z,95318.94
2023-02-04T02:22:42.715Z,95318.94
2023-02-04T02:25:29.829Z,95314.38
2023-02-04T02:28:19.002Z,95329.66
2023-02-04T02:31:05.361Z,95343.53
2023-02-04T02:33:51.429Z,95349.44
2023-02-04T02:36:37.248Z,95348.88
2023-02-04T02:39:23.448Z,95366.53
2023-02-04T02:42:11.486Z,95367.09
2023-02-04T02:44:58.279Z,95383.41
2023-02-04T02:47:43.949Z,95372.47
2023-02-04T02:50:31.585Z,95375.66
2023-02-04T02:53:20.179Z,95368.72
2023-02-04T02:56:07.935Z,95363.38
2023-02-04T02:58:53.953Z,95370.88
2023-02-04T03:01:39.567Z,95362.84
2023-02-04T03:04:27.534Z,95372.22
2023-02-04T03:07:14.304Z,95367.09
2023-02-04T03:10:00.627Z,95373.25
2023-02-04T03:12:47.507Z,95364.72
2023-02-04T03:15:33.883Z,95360.16
2023-02-04T03:18:21.182Z,95354.03
2023-02-04T03:21:07.593Z,95351.63
2023-02-04T03:23:56.684Z,95348.94
2023-02-04T03:26:42.813Z,95346.53
2023-02-04T03:29:30.531Z,95334.50
2023-02-04T03:32:16.728Z,95328.38
2023-02-04T03:35:02.507Z,95339.06
2023-02-04T03:37:48.232Z,95330.22
2023-02-04T03:40:33.877Z,95317.97
2023-02-04T03:43:19.782Z,95320.09
2023-02-04T03:46:05.767Z,95320.09
2023-02-04T03:48:51.889Z,95309.94
2023-02-04T03:51:37.375Z,95312.09
2023-02-04T03:54:24.617Z,95321.72
2023-02-04T03:57:10.780Z,95314.22
2023-02-04T03:59:56.707Z,95310.50
2023-02-04T04:02:42.477Z,95311.03
2023-02-04T04:05:28.830Z,95292.31
2023-02-04T04:08:14.825Z,95301.41
2023-02-04T04:11:00.868Z,95300.34
2023-02-04T04:13:46.622Z,95301.38
2023-02-04T04:16:32.514Z,95299.78
2023-02-04T04:19:18.515Z,95306.19
2023-02-04T04:22:04.250Z,95302.97
2023-02-04T04:24:50.149Z,95293.09
2023-02-04T04:27:35.980Z,95302.97
2023-02-04T04:30:22.074Z,95293.88
2023-02-04T04:33:07.736Z,95300.31
2023-02-04T04:35:53.498Z,95307.25
2023-02-04T04:38:39.334Z,95317.13
2023-02-04T04:41:24.965Z,95315.78
2023-02-04T04:44:10.728Z,95325.94
2023-02-04T04:46:56.496Z,95314.69
2023-02-04T04:49:42.515Z,95307.78
2023-02-04T04:52:28.243Z,95306.69
2023-02-04T04:55:14.046Z,95314.69
2023-02-04T04:58:00.107Z,95319.25
2023-02-04T05:00:45.880Z,95313.91
2023-02-04T05:03:31.523Z,95313.09
2023-02-04T05:06:17.173Z,95307.75
2023-02-04T05:09:03.092Z,95301.59
2023-02-04T05:11:48.729Z,95287.97
2023-02-04T05:14:34.656Z,95295.97
2023-02-04T05:17:20.380Z,95285.28
2023-02-04T05:20:06.644Z,95284.50
2023-02-04T05:22:52.542Z,95277.00
2023-02-04T05:25:38.298Z,95272.44
2023-02-04T05:28:24.071Z,95277.78
2023-02-04T05:31:09.994Z,95281.00
2023-02-04T05:33:56.391Z,95279.94
2023-02-04T05:36:42.547Z,95281.28
2023-02-04T05:39:28.294Z,95276.47
2023-02-04T05:42:15.484Z,95287.41
2023-02-04T05:45:01.240Z,95307.22
2023-02-04T05:47:47.459Z,95320.56
2023-02-04T05:50:33.444Z,95312.03
2023-02-04T05:53:37.715Z,95319.50
2023-02-04T05:56:25.333Z,95318.97
2023-02-04T05:59:11.046Z,95312.59
2023-02-04T06:01:56.706Z,95322.19
2023-02-04T06:04:44.708Z,95328.06
2023-02-04T06:07:30.512Z,95329.13
2023-02-04T06:10:16.730Z,95322.19
2023-02-04T06:13:02.449Z,95329.66
2023-02-04T06:15:48.410Z,95308.53
2023-02-04T06:18:34.133Z,95319.50
2023-02-04T06:21:21.231Z,95314.97
2023-02-04T06:24:07.038Z,95315.78
2023-02-04T06:26:52.714Z,95313.59
2023-02-04T06:29:38.349Z,95307.75
2023-02-04T06:32:26.352Z,95308.53
2023-02-04T06:35:13.289Z,95300.53
2023-02-04T06:37:59.358Z,95302.66
2023-02-04T06:40:45.255Z,95307.75
2023-02-04T06:43:31.258Z,95305.06
2023-02-04T06:46:17.027Z,95307.22
2023-02-04T06:49:02.898Z,95312.56
2023-02-04T06:51:49.439Z,95314.16
2023-02-04T06:54:35.624Z,95316.81
2023-02-04T06:57:21.224Z,95313.06
2023-02-04T07:00:09.007Z,95310.94
2023-02-04T07:02:54.826Z,95304.78
2023-02-04T07:05:41.496Z,95302.63
2023-02-04T07:08:27.188Z,95312.50
2023-02-04T07:11:13.137Z,95312.22
2023-02-04T07:13:58.744Z,95304.47
2023-02-04T07:16:44.846Z,95299.13
2023-02-04T07:19:30.855Z,95314.63
2023-02-04T07:22:18.734Z,95307.41
2023-02-04T07:25:04.830Z,95315.16
2023-02-04T07:27:51.000Z,95313.53
2023-02-04T07:30:36.731Z,95310.31
2023-02-04T07:33:22.918Z,95312.69
2023-02-04T07:36:08.601Z,95317.22
2023-02-04T07:38:54.305Z,95313.50
2023-02-04T07:41:40.009Z,95320.19
2023-02-04T07:44:25.778Z,95319.88
2023-02-04T07:47:12.594Z,95327.34
2023-02-04T07:49:58.827Z,95332.72
2023-02-04T07:52:44.514Z,95325.19
2023-02-04T07:55:30.342Z,95328.91
2023-02-04T07:58:15.968Z,95328.31
2023-02-04T08:01:01.786Z,95330.94
2023-02-04T08:03:48.546Z,95334.63
2023-02-04T08:06:34.303Z,95321.22
2023-02-04T08:09:20.091Z,95331.59
2023-02-04T08:12:05.946Z,95330.19
2023-02-04T08:14:51.875Z,95328.84
2023-02-04T08:17:37.699Z,95324.19
2023-02-04T08:20:23.521Z,95335.38
2023-02-04T08:23:09.432Z,95327.53
2023-02-04T08:25:55.252Z,95322.69
2023-02-04T08:28:41.282Z,95317.78
2023-02-04T08:31:27.349Z,95314.47
2023-02-04T08:34:13.700Z,95318.16
2023-02-04T08:36:59.634Z,95308.25
2023-02-04T08:39:46.349Z,95310.56
2023-02-04T08:42:34.905Z,95299.56
2023-02-04T08:45:21.327Z,95301.38
2023-02-04T08:48:09.541Z,95296.25
2023-02-04T08:50:55.465Z,95303.41
2023-02-04T08:53:41.351Z,95298.28
2023-02-04T08:56:27.097Z,95302.19
2023-02-04T08:59:12.845Z,95296.03
2023-02-04T09:01:58.835Z,95290.09
2023-02-04T09:04:45.021Z,95294.91
2023-02-04T09:07:30.759Z,95299.19
2023-02-04T09:10:16.536Z,95289.53
2023-02-04T09:13:02.528Z,95289.81
2023-02-04T09:15:48.107Z,95294.16
2023-02-04T09:18:35.836Z,95296.38
2023-02-04T09:21:21.998Z,95296.66
2023-02-04T09:24:08.228Z,95285.97
2023-02-04T09:26:54.323Z,95290.25
2023-02-04T09:29:40.338Z,95284.06
2023-02-04T09:32:26.251Z,95279.94
2023-02-04T09:35:12.412Z,95263.94
2023-02-04T09:37:58.151Z,95262.66
2023-02-04T09:40:51.275Z,95260.13
2023-02-04T09:43:40.836Z,95259.53
2023-02-04T09:46:31.274Z,95264.34
2023-02-04T09:49:17.458Z,95257.44
2023-02-04T09:52:03.479Z,95260.94
2023-02-04T09:54:50.635Z,95266.50
2023-02-04T09:57:36.673Z,95269.72
2023-02-04T10:00:25.962Z,95273.47
2023-02-04T10:03:17.152Z,95268.09
2023-02-04T10:06:03.226Z,95257.16
2023-02-04T10:08:51.049Z,95264.41
2023-02-04T10:11:38.999Z,95268.09
2023-02-04T10:14:24.938Z,95258.16
2023-02-04T10:17:11.775Z,95259.44
2023-02-04T10:19:57.953Z,95255.19
2023-02-04T10:22:44.258Z,95248.25
2023-02-04T10:25:30.306Z,95249.13
2023-02-04T10:28:16.043Z,95240.56
2023-02-04T10:31:02.279Z,95267.50
2023-02-04T10:33:48.409Z,95246.81
2023-02-04T10:36:34.456Z,95251.47
2023-02-04T10:39:26.088Z,95253.25
2023-02-04T10:42:23.937Z,95261.31
2023-02-04T10:45:22.695Z,95263.50
2023-02-04T10:48:18.837Z,95261.16
2023-02-04T10:51:04.515Z,95251.66
2023-02-04T10:54:10.346Z,95236.31
2023-02-04T10:57:05.276Z,95231.16
2023-02-04T10:59:53.612Z,95234.47
2023-02-04T11:02:39.655Z,95223.06
2023-02-04T11:05:30.761Z,95216.94
2023-02-04T11:08:22.792Z,95227.06
2023-02-04T11:11:20.618Z,95210.84
2023-02-04T11:14:18.058Z,95197.72
2023-02-04T11:17:03.987Z,95207.06
2023-02-04T11:19:50.399Z,95192.16
2023-02-04T11:22:45.366Z,95194.78
2023-02-04T11:25:35.361Z,95191.38
2023-02-04T11:28:26.571Z,95191.16
2023-02-04T11:31:35.360Z,95182.31
2023-02-04T11:34:21.779Z,95179.78
2023-02-04T11:37:19.526Z,95169.59
2023-02-04T11:40:31.865Z,95154.78
2023-02-04T11:43:20.209Z,95144.91
2023-02-04T11:46:16.510Z,95121.56
2023-02-04T11:49:02.459Z,95115.00
2023-02-04T11:51:48.445Z,95127.44
2023-02-04T11:54:35.204Z,95130.78
2023-02-04T11:57:21.065Z,95134.25
2023-02-04T12:00:14.627Z,95140.66
2023-02-04T12:03:07.943Z,95158.22
2023-02-04T12:05:56.967Z,95169.09
2023-02-04T12:08:42.997Z,95245.31
2023-02-04T12:11:32.760Z,95317.09
2023-02-04T12:14:19.372Z,95297.75
2023-02-04T12:17:19.506Z,95268.97
2023-02-04T12:20:05.974Z,95262.09
2023-02-04T12:22:51.854Z,95262.22
2023-02-04T12:25:37.521Z,95259.16
2023-02-04T12:28:24.215Z,95262.09
2023-02-04T12:31:10.206Z,95250.72
2023-02-04T12:33:56.850Z,95258.78
2023-02-04T12:36:43.854Z,95254.91
2023-02-04T12:39:32.127Z,95259.44
2023-02-04T12:42:17.803Z,95271.25
2023-02-04T12:45:03.984Z,95269.13
2023-02-04T12:47:49.751Z,95269.38
2023-02-04T12:50:36.010Z,95322.66
2023-02-04T12:53:22.372Z,95294.31
2023-02-04T12:56:08.047Z,95282.28
2023-02-04T12:58:53.939Z,95280.34
2023-02-04T13:01:39.576Z,95276.34
2023-02-04T13:04:25.349Z,95272.88
2023-02-04T13:07:13.318Z,95276.06
2023-02-04T13:09:59.632Z,95261.63
2023-02-04T13:12:45.746Z,95267.72
2023-02-04T13:15:32.033Z,95267.25
2023-02-04T13:18:18.691Z,95253.63
2023-02-04T13:21:05.048Z,95260.34
2023-02-04T13:23:50.940Z,95243.94
2023-02-04T13:26:36.594Z,95239.47
2023-02-04T13:29:22.445Z,95235.09
2023-02-04T13:32:08.484Z,95233.81
2023-02-04T13:34:54.388Z,95237.47
2023-02-04T13:37:40.566Z,95238.69
2023-02-04T13:40:26.624Z,95232.16
2023-02-04T13:43:12.525Z,95240.66
2023-02-04T13:45:59.010Z,95254.22
2023-02-04T13:48:44.595Z,95256.47
2023-02-04T13:51:31.508Z,95259.81
2023-02-04T13:54:17.551Z,95259.88
2023-02-04T13:57:03.301Z,95271.69
2023-02-04T13:59:49.479Z,95269.59
2023-02-04T14:02:35.325Z,95289.72
2023-02-04T14:05:22.479Z,95301.25
2023-02-04T14:08:09.353Z,95305.28
2023-02-04T14:10:55.810Z,95336.09
2023-02-04T14:13:41.761Z,95314.22
2023-02-04T14:16:28.287Z,95310.72
2023-02-04T14:19:15.184Z,95311.28
2023-02-04T14:22:02.983Z,95302.72
2023-02-04T14:24:50.371Z,95320.09
2023-02-04T14:27:38.523Z,95316.38
2023-02-04T14:30:26.503Z,95331.31
2023-02-04T14:33:13.068Z,95346.78
2023-02-04T14:35:58.936Z,95333.97
2023-02-04T14:38:44.857Z,95338.19
2023-02-04T14:41:31.332Z,95341.13
2023-02-04T14:44:20.846Z,95359.00
2023-02-04T14:47:06.707Z,95358.97
2023-02-04T14:49:53.919Z,95384.03
2023-02-04T14:52:40.039Z,95381.34
2023-02-04T14:55:27.984Z,95405.84
2023-02-04T14:58:13.878Z,95403.69
2023-02-04T15:00:59.694Z,95401.31
2023-02-04T15:03:46.134Z,95390.09
2023-02-04T15:06:35.534Z,95434.16
2023-02-04T15:09:21.510Z,95424.53
2023-02-04T15:12:07.863Z,95436.78
2023-02-04T15:14:54.496Z,95443.72
2023-02-04T15:17:40.453Z,95443.19
2023-02-04T15:20:26.438Z,95453.81
2023-02-04T15:23:13.308Z,95438.81
2023-02-04T15:26:06.382Z,95455.88
2023-02-04T15:28:55.791Z,95448.06
2023-02-04T15:31:41.991Z,95458.97
2023-02-04T15:34:28.209Z,95455.25
2023-02-04T15:37:14.263Z,95469.13
2023-02-04T15:40:00.901Z,95468.00
2023-02-04T15:42:47.678Z,95482.97
2023-02-04T15:45:33.587Z,95479.78
2023-02-04T15:48:21.110Z,95487.25
2023-02-04T15:51:07.035Z,95496.28
2023-02-04T15:53:53.040Z,95514.41
2023-02-04T15:56:39.476Z,95519.91
2023-02-04T15:59:25.272Z,95523.31
2023-02-04T16:02:11.498Z,95513.63
2023-02-04T16:04:58.576Z,95529.59
2023-02-04T16:07:44.514Z,95530.94
2023-02-04T16:10:30.905Z,95539.06
2023-02-04T16:13:17.190Z,95541.19
2023-02-04T16:16:03.275Z,95541.06
2023-02-04T16:18:49.189Z,95543.19
2023-02-04T16:21:34.951Z,95567.91
2023-02-04T16:24:21.344Z,95560.59
2023-02-04T16:27:07.583Z,95594.13
2023-02-04T16:29:56.445Z,95584.41
2023-02-04T16:32:43.770Z,95596.66
2023-02-04T16:35:29.612Z,95628.91
2023-02-04T16:38:18.560Z,95603.84
2023-02-04T16:41:05.068Z,95609.47
2023-02-04T16:43:51.298Z,95613.16
2023-02-04T16:46:37.502Z,95605.19
2023-02-04T16:49:23.398Z,95591.25
2023-02-04T16:52:09.590Z,95595.03
2023-02-04T16:54:55.368Z,95611.25
2023-02-04T16:57:43.240Z,95610.47
2023-02-04T17:00:29.297Z,95608.75
2023-02-04T17:03:15.256Z,95613.00
2023-02-04T17:06:01.502Z,95607.53
2023-02-04T17:08:47.269Z,95618.56
2023-02-04T17:11:33.342Z,95616.81
2023-02-04T17:14:19.962Z,95606.75
2023-02-04T17:17:05.615Z,95588.63
2023-02-04T17:19:51.552Z,95600.31
2023-02-04T17:22:38.459Z,95601.38
2023-02-04T17:25:23.943Z,95598.69
2023-02-04T17:28:09.684Z,95607.72
2023-02-04T17:30:55.370Z,95588.44
2023-02-04T17:33:41.935Z,95587.34
2023-02-04T17:36:28.184Z,95607.59
2023-02-04T17:39:14.307Z,95598.47
2023-02-04T17:42:00.202Z,95607.50
2023-02-04T17:44:46.078Z,95607.50
2023-02-04T17:47:32.049Z,95607.00
2023-02-04T17:50:18.582Z,95593.16
2023-02-04T17:53:05.115Z,95596.84
2023-02-04T17:55:51.335Z,95606.38
2023-02-04T17:58:37.873Z,95609.28
2023-02-04T18:01:25.341Z,95594.53
2023-02-04T18:04:14.919Z,95613.13
2023-02-04T18:07:01.160Z,95594.94
2023-02-04T18:09:47.056Z,95612.97
2023-02-04T18:12:35.149Z,95600.41
2023-02-04T19:00:09.027Z,95649.88
2023-02-04T19:03:00.596Z,95648.34
2023-02-04T19:05:50.793Z,95649.41
2023-02-04T19:08:44.100Z,95637.59
2023-02-04T19:11:43.047Z,95654.09
2023-02-04T19:14:39.366Z,95655.13
2023-02-04T19:17:28.263Z,95658.13
2023-02-04T19:20:23.764Z,95656.53
2023-02-04T19:23:16.143Z,95670.03
2023-02-04T19:26:02.073Z,95698.56
2023-02-04T19:28:50.812Z,95700.16
2023-02-04T19:31:37.589Z,95709.66
2023-02-04T19:34:32.887Z,95696.81
2023-02-04T19:37:23.672Z,95704.94
2023-02-04T19:40:29.343Z,95716.47
2023-02-04T19:43:23.710Z,95727.69
2023-02-04T19:46:21.650Z,95738.22
2023-02-04T19:49:14.740Z,95702.09
2023-02-04T19:52:01.045Z,95699.00
2023-02-04T19:54:47.119Z,95699.56
2023-02-04T19:57:35.517Z,95678.91
2023-02-04T20:00:38.204Z,95707.66
2023-02-04T20:03:43.491Z,95680.75
2023-02-04T20:06:30.747Z,95683.63
2023-02-04T20:09:25.241Z,95695.66
2023-02-04T20:12:18.542Z,95699.34
2023-02-04T21:08:43.448Z,95839.56
2023-02-04T21:11:29.476Z,95855.31
2023-02-04T21:14:15.335Z,95811.50
2023-02-04T21:17:01.976Z,95828.81
2023-02-04T21:19:47.658Z,95819.34
2023-02-04T21:22:33.537Z,95838.84
2023-02-04T21:25:19.270Z,95829.13
2023-02-04T21:28:06.317Z,95826.63
2023-02-04T21:30:52.212Z,95825.44
2023-02-04T21:33:37.891Z,95816.47
2023-02-04T21:36:27.933Z,95823.84
2023-02-04T21:39:13.995Z,95805.22
2023-02-04T21:42:11.667Z,95808.09
2023-02-04T21:45:01.445Z,95815.03
2023-02-04T21:47:48.321Z,95851.34
2023-02-04T21:50:34.477Z,95857.88
2023-02-04T21:53:20.279Z,95834.94
2023-02-04T21:56:07.866Z,95863.66
2023-02-04T21:58:54.369Z,95882.06
2023-02-04T22:01:40.619Z,95845.75
2023-02-04T22:04:26.618Z,95888.53
2023-02-04T22:07:12.398Z,95900.75
2023-02-04T22:09:58.074Z,95914.22
2023-02-04T22:12:43.867Z,95926.50
2023-02-04T22:15:29.820Z,95912.03
2023-02-04T22:18:15.569Z,95934.72
2023-02-04T22:21:01.189Z,95924.34
2023-02-04T22:23:46.941Z,95906.22
2023-02-04T22:26:32.505Z,95916.81
2023-02-04T22:29:24.921Z,95907.25
2023-02-04T22:32:10.945Z,95941.69
2023-02-04T22:34:57.007Z,95919.91
2023-02-04T22:37:43.171Z,95922.53
2023-02-04T22:40:29.325Z,95902.84
2023-02-04T22:43:20.848Z,95894.13
2023-02-04T22:46:07.309Z,95895.31
2023-02-04T22:48:53.254Z,95891.66
2023-02-04T22:51:39.316Z,95883.53
2023-02-04T22:54:26.205Z,95874.56
2023-02-04T22:57:13.201Z,95871.84
2023-02-04T22:59:59.311Z,95875.47
2023-02-04T23:02:45.193Z,95884.44
2023-02-04T23:05:30.970Z,95900.34
2023-02-04T23:08:17.992Z,95856.75
2023-02-04T23:11:04.224Z,95872.88
2023-02-04T23:13:50.425Z,95904.44
2023-02-04T23:16:36.293Z,95909.75
2023-02-04T23:19:21.941Z,95877.22
2023-02-04T23:22:09.920Z,95891.78
2023-02-04T23:24:55.873Z,95863.69
2023-02-04T23:27:41.605Z,95896.72
2023-02-04T23:30:28.068Z,95903.78
2023-02-04T23:33:15.263Z,95914.44
2023-02-04T23:36:01.715Z,95868.84
2023-02-04T23:38:47.809Z,95888.53
2023-02-04T23:41:33.984Z,95888.94
2023-02-04T23:44:20.071Z,95909.91
2023-02-04T23:47:05.743Z,95924.38
2023-02-04T23:49:51.638Z,95932.13
2023-02-04T23:52:37.299Z,95916.66
2023-02-04T23:55:23.038Z,95932.97
2023-02-04T23:58:08.723Z,95922.84
